sensor_id;sensor_type;location;lat;lon;timestamp;temperature;humidity
22716;DHT22;11525;51.152;4.456;2023-04-03T00:01:07;4.10;99.90
22716;DHT22;11525;51.152;4.456;2023-04-03T00:03:33;4.10;99.90
22716;DHT22;11525;51.152;4.456;2023-04-03T00:05:59;4.10;99.90
22716;DHT22;11525;51.152;4.456;2023-04-03T00:08:25;4.10;99.90
22716;DHT22;11525;51.152;4.456;2023-04-03T00:10:51;4.00;99.90
22716;DHT22;11525;51.152;4.456;2023-04-03T00:13:17;4.00;99.90
22716;DHT22;11525;51.152;4.456;2023-04-03T00:15:43;4.00;99.90
22716;DHT22;11525;51.152;4.456;2023-04-03T00:18:09;3.90;99.90
22716;DHT22;11525;51.152;4.456;2023-04-03T00:20:35;4.10;99.90
22716;DHT22;11525;51.152;4.456;2023-04-03T00:23:01;4.10;99.90
22716;DHT22;11525;51.152;4.456;2023-04-03T00:25:27;4.10;99.90
22716;DHT22;11525;51.152;4.456;2023-04-03T00:27:53;4.00;99.90
22716;DHT22;11525;51.152;4.456;2023-04-03T00:30:20;4.00;99.90
22716;DHT22;11525;51.152;4.456;2023-04-03T00:32:50;3.80;99.90
22716;DHT22;11525;51.152;4.456;2023-04-03T00:35:17;3.80;99.90
22716;DHT22;11525;51.152;4.456;2023-04-03T00:37:43;3.80;99.90
22716;DHT22;11525;51.152;4.456;2023-04-03T00:40:09;3.80;99.90
22716;DHT22;11525;51.152;4.456;2023-04-03T00:42:37;3.70;99.90
22716;DHT22;11525;51.152;4.456;2023-04-03T00:47:31;3.70;99.90
22716;DHT22;11525;51.152;4.456;2023-04-03T00:49:58;3.70;99.90
22716;DHT22;11525;51.152;4.456;2023-04-03T00:52:28;3.70;99.90
22716;DHT22;11525;51.152;4.456;2023-04-03T00:54:59;3.60;99.90
22716;DHT22;11525;51.152;4.456;2023-04-03T00:57:27;3.60;99.90
22716;DHT22;11525;51.152;4.456;2023-04-03T00:59:59;3.60;99.90
22716;DHT22;11525;51.152;4.456;2023-04-03T01:02:27;3.50;99.90
22716;DHT22;11525;51.152;4.456;2023-04-03T01:04:53;3.50;99.90
22716;DHT22;11525;51.152;4.456;2023-04-03T01:07:22;3.50;99.90
22716;DHT22;11525;51.152;4.456;2023-04-03T01:09:51;3.50;99.90
22716;DHT22;11525;51.152;4.456;2023-04-03T01:12:23;3.50;99.90
22716;DHT22;11525;51.152;4.456;2023-04-03T01:14:53;3.50;99.90
22716;DHT22;11525;51.152;4.456;2023-04-03T01:25:48;3.50;99.90
22716;DHT22;11525;51.152;4.456;2023-04-03T01:28:21;3.50;99.90
22716;DHT22;11525;51.152;4.456;2023-04-03T01:33:32;3.40;99.90
22716;DHT22;11525;51.152;4.456;2023-04-03T01:35:58;3.30;99.90
22716;DHT22;11525;51.152;4.456;2023-04-03T01:38:24;3.30;99.90
22716;DHT22;11525;51.152;4.456;2023-04-03T01:40:50;3.30;99.90
22716;DHT22;11525;51.152;4.456;2023-04-03T01:43:16;3.30;99.90
22716;DHT22;11525;51.152;4.456;2023-04-03T01:45:42;3.30;99.90
22716;DHT22;11525;51.152;4.456;2023-04-03T01:48:08;3.30;99.90
22716;DHT22;11525;51.152;4.456;2023-04-03T01:50:34;3.30;99.90
22716;DHT22;11525;51.152;4.456;2023-04-03T01:53:00;3.20;99.90
22716;DHT22;11525;51.152;4.456;2023-04-03T01:55:25;3.20;99.90
22716;DHT22;11525;51.152;4.456;2023-04-03T01:57:51;3.20;99.90
22716;DHT22;11525;51.152;4.456;2023-04-03T02:00:17;3.20;99.90
22716;DHT22;11525;51.152;4.456;2023-04-03T02:02:43;3.20;99.90
22716;DHT22;11525;51.152;4.456;2023-04-03T02:05:09;3.20;99.90
22716;DHT22;11525;51.152;4.456;2023-04-03T02:07:35;3.20;99.90
22716;DHT22;11525;51.152;4.456;2023-04-03T02:10:01;3.20;99.90
22716;DHT22;11525;51.152;4.456;2023-04-03T02:12:27;3.10;99.90
22716;DHT22;11525;51.152;4.456;2023-04-03T02:14:52;3.20;99.90
22716;DHT22;11525;51.152;4.456;2023-04-03T02:17:18;3.10;99.90
22716;DHT22;11525;51.152;4.456;2023-04-03T02:19:44;3.10;99.90
22716;DHT22;11525;51.152;4.456;2023-04-03T02:22:10;3.10;99.90
22716;DHT22;11525;51.152;4.456;2023-04-03T02:24:36;3.10;99.90
22716;DHT22;11525;51.152;4.456;2023-04-03T02:27:01;3.10;99.90
22716;DHT22;11525;51.152;4.456;2023-04-03T02:29:27;3.10;99.90
22716;DHT22;11525;51.152;4.456;2023-04-03T02:31:53;3.00;99.90
22716;DHT22;11525;51.152;4.456;2023-04-03T02:34:19;3.00;99.90
22716;DHT22;11525;51.152;4.456;2023-04-03T02:36:45;3.00;99.90
22716;DHT22;11525;51.152;4.456;2023-04-03T02:39:11;3.00;99.90
22716;DHT22;11525;51.152;4.456;2023-04-03T02:41:37;3.00;99.90
22716;DHT22;11525;51.152;4.456;2023-04-03T02:44:04;3.00;99.90
22716;DHT22;11525;51.152;4.456;2023-04-03T02:46:30;3.00;99.90
22716;DHT22;11525;51.152;4.456;2023-04-03T02:48:56;3.10;99.90
22716;DHT22;11525;51.152;4.456;2023-04-03T02:51:21;3.10;99.90
22716;DHT22;11525;51.152;4.456;2023-04-03T02:53:48;3.00;99.90
22716;DHT22;11525;51.152;4.456;2023-04-03T02:56:15;3.00;99.90
22716;DHT22;11525;51.152;4.456;2023-04-03T02:58:41;2.90;99.90
22716;DHT22;11525;51.152;4.456;2023-04-03T03:01:07;2.90;99.90
22716;DHT22;11525;51.152;4.456;2023-04-03T03:03:33;2.90;99.90
22716;DHT22;11525;51.152;4.456;2023-04-03T03:06:14;2.90;99.90
22716;DHT22;11525;51.152;4.456;2023-04-03T03:08:40;2.90;99.90
22716;DHT22;11525;51.152;4.456;2023-04-03T03:11:06;2.80;99.90
22716;DHT22;11525;51.152;4.456;2023-04-03T03:13:33;2.80;99.90
22716;DHT22;11525;51.152;4.456;2023-04-03T03:15:59;2.80;99.90
22716;DHT22;11525;51.152;4.456;2023-04-03T03:18:25;2.90;99.90
22716;DHT22;11525;51.152;4.456;2023-04-03T03:20:55;2.80;99.90
22716;DHT22;11525;51.152;4.456;2023-04-03T03:23:23;2.80;99.90
22716;DHT22;11525;51.152;4.456;2023-04-03T03:25:55;2.80;99.90
22716;DHT22;11525;51.152;4.456;2023-04-03T03:28:21;2.90;99.90
22716;DHT22;11525;51.152;4.456;2023-04-03T03:30:47;2.80;99.90
22716;DHT22;11525;51.152;4.456;2023-04-03T03:33:13;2.80;99.90
22716;DHT22;11525;51.152;4.456;2023-04-03T03:35:38;2.70;99.90
22716;DHT22;11525;51.152;4.456;2023-04-03T03:38:04;2.70;99.90
22716;DHT22;11525;51.152;4.456;2023-04-03T03:40:30;2.70;99.90
22716;DHT22;11525;51.152;4.456;2023-04-03T03:42:55;2.70;99.90
22716;DHT22;11525;51.152;4.456;2023-04-03T03:45:21;2.70;99.90
22716;DHT22;11525;51.152;4.456;2023-04-03T03:47:47;2.70;99.90
22716;DHT22;11525;51.152;4.456;2023-04-03T03:50:13;2.70;99.90
22716;DHT22;11525;51.152;4.456;2023-04-03T03:52:38;2.70;99.90
22716;DHT22;11525;51.152;4.456;2023-04-03T03:55:04;2.70;99.90
22716;DHT22;11525;51.152;4.456;2023-04-03T03:57:31;2.70;99.90
22716;DHT22;11525;51.152;4.456;2023-04-03T03:59:57;2.60;99.90
22716;DHT22;11525;51.152;4.456;2023-04-03T04:02:22;2.60;99.90
22716;DHT22;11525;51.152;4.456;2023-04-03T04:04:48;2.60;99.90
22716;DHT22;11525;51.152;4.456;2023-04-03T04:07:14;2.50;99.90
22716;DHT22;11525;51.152;4.456;2023-04-03T04:09:40;2.50;99.90
22716;DHT22;11525;51.152;4.456;2023-04-03T04:12:06;2.50;99.90
22716;DHT22;11525;51.152;4.456;2023-04-03T04:14:32;2.50;99.90
22716;DHT22;11525;51.152;4.456;2023-04-03T04:16:57;2.60;99.90
22716;DHT22;11525;51.152;4.456;2023-04-03T04:19:23;2.60;99.90
22716;DHT22;11525;51.152;4.456;2023-04-03T04:21:49;2.50;99.90
22716;DHT22;11525;51.152;4.456;2023-04-03T04:24:15;2.40;99.90
22716;DHT22;11525;51.152;4.456;2023-04-03T04:26:41;2.40;99.90
22716;DHT22;11525;51.152;4.456;2023-04-03T04:29:09;2.40;99.90
22716;DHT22;11525;51.152;4.456;2023-04-03T04:31:35;2.30;99.90
22716;DHT22;11525;51.152;4.456;2023-04-03T04:34:01;2.30;99.90
22716;DHT22;11525;51.152;4.456;2023-04-03T04:36:27;2.30;99.90
22716;DHT22;11525;51.152;4.456;2023-04-03T04:38:53;2.30;99.90
22716;DHT22;11525;51.152;4.456;2023-04-03T04:41:22;2.30;99.90
22716;DHT22;11525;51.152;4.456;2023-04-03T04:43:49;2.30;99.90
22716;DHT22;11525;51.152;4.456;2023-04-03T04:46:15;2.20;99.90
22716;DHT22;11525;51.152;4.456;2023-04-03T04:48:41;2.30;99.90
22716;DHT22;11525;51.152;4.456;2023-04-03T04:51:07;2.20;99.90
22716;DHT22;11525;51.152;4.456;2023-04-03T04:53:32;2.20;99.90
22716;DHT22;11525;51.152;4.456;2023-04-03T04:55:58;2.20;99.90
22716;DHT22;11525;51.152;4.456;2023-04-03T04:58:24;2.20;99.90
22716;DHT22;11525;51.152;4.456;2023-04-03T05:01:01;2.20;99.90
22716;DHT22;11525;51.152;4.456;2023-04-03T05:03:27;2.10;99.90
22716;DHT22;11525;51.152;4.456;2023-04-03T05:05:53;2.00;99.90
22716;DHT22;11525;51.152;4.456;2023-04-03T05:08:19;2.00;99.90
22716;DHT22;11525;51.152;4.456;2023-04-03T05:10:46;2.00;99.90
22716;DHT22;11525;51.152;4.456;2023-04-03T05:13:12;2.00;99.90
22716;DHT22;11525;51.152;4.456;2023-04-03T05:15:38;2.00;99.90
22716;DHT22;11525;51.152;4.456;2023-04-03T05:18:04;2.00;99.90
22716;DHT22;11525;51.152;4.456;2023-04-03T05:20:31;2.00;99.90
22716;DHT22;11525;51.152;4.456;2023-04-03T05:22:57;1.90;99.90
22716;DHT22;11525;51.152;4.456;2023-04-03T05:25:23;1.90;99.90
22716;DHT22;11525;51.152;4.456;2023-04-03T05:27:49;1.90;99.90
22716;DHT22;11525;51.152;4.456;2023-04-03T05:30:15;2.00;99.90
22716;DHT22;11525;51.152;4.456;2023-04-03T05:32:41;1.90;99.90
22716;DHT22;11525;51.152;4.456;2023-04-03T05:35:08;1.90;99.90
22716;DHT22;11525;51.152;4.456;2023-04-03T05:37:34;1.90;99.90
22716;DHT22;11525;51.152;4.456;2023-04-03T05:40:00;1.90;99.90
22716;DHT22;11525;51.152;4.456;2023-04-03T05:42:26;1.90;99.90
22716;DHT22;11525;51.152;4.456;2023-04-03T05:44:51;1.90;99.90
22716;DHT22;11525;51.152;4.456;2023-04-03T05:47:18;1.90;99.90
22716;DHT22;11525;51.152;4.456;2023-04-03T05:49:44;1.90;99.90
22716;DHT22;11525;51.152;4.456;2023-04-03T05:52:36;2.00;99.90
22716;DHT22;11525;51.152;4.456;2023-04-03T05:55:02;2.00;99.90
22716;DHT22;11525;51.152;4.456;2023-04-03T05:57:28;2.10;99.90
22716;DHT22;11525;51.152;4.456;2023-04-03T05:59:54;2.20;99.90
22716;DHT22;11525;51.152;4.456;2023-04-03T06:02:21;2.30;99.90
22716;DHT22;11525;51.152;4.456;2023-04-03T06:04:48;2.40;99.90
22716;DHT22;11525;51.152;4.456;2023-04-03T06:07:16;2.40;99.90
22716;DHT22;11525;51.152;4.456;2023-04-03T06:09:43;2.50;99.90
22716;DHT22;11525;51.152;4.456;2023-04-03T06:12:09;2.50;99.90
22716;DHT22;11525;51.152;4.456;2023-04-03T06:14:35;2.60;99.90
22716;DHT22;11525;51.152;4.456;2023-04-03T06:17:01;2.70;99.90
22716;DHT22;11525;51.152;4.456;2023-04-03T06:19:28;2.70;99.90
22716;DHT22;11525;51.152;4.456;2023-04-03T06:21:54;2.70;99.90
22716;DHT22;11525;51.152;4.456;2023-04-03T06:24:20;2.80;99.90
22716;DHT22;11525;51.152;4.456;2023-04-03T06:26:48;2.90;99.90
22716;DHT22;11525;51.152;4.456;2023-04-03T06:29:15;3.00;99.90
22716;DHT22;11525;51.152;4.456;2023-04-03T06:31:41;3.20;99.90
22716;DHT22;11525;51.152;4.456;2023-04-03T06:34:07;3.30;99.90
22716;DHT22;11525;51.152;4.456;2023-04-03T06:36:33;3.40;99.90
22716;DHT22;11525;51.152;4.456;2023-04-03T06:39:00;3.60;99.90
22716;DHT22;11525;51.152;4.456;2023-04-03T06:41:25;3.70;99.90
22716;DHT22;11525;51.152;4.456;2023-04-03T06:43:52;3.80;99.90
22716;DHT22;11525;51.152;4.456;2023-04-03T06:46:20;3.90;99.90
22716;DHT22;11525;51.152;4.456;2023-04-03T06:48:47;4.60;99.90
22716;DHT22;11525;51.152;4.456;2023-04-03T06:51:27;6.60;99.90
22716;DHT22;11525;51.152;4.456;2023-04-03T06:53:55;8.30;99.90
22716;DHT22;11525;51.152;4.456;2023-04-03T06:56:22;8.70;99.90
22716;DHT22;11525;51.152;4.456;2023-04-03T06:58:48;10.10;99.90
22716;DHT22;11525;51.152;4.456;2023-04-03T07:01:16;10.20;99.90
22716;DHT22;11525;51.152;4.456;2023-04-03T07:03:42;10.60;99.90
22716;DHT22;11525;51.152;4.456;2023-04-03T07:06:11;11.00;99.90
22716;DHT22;11525;51.152;4.456;2023-04-03T07:08:38;12.20;99.90
22716;DHT22;11525;51.152;4.456;2023-04-03T07:11:04;12.40;99.90
22716;DHT22;11525;51.152;4.456;2023-04-03T07:13:30;13.20;99.90
22716;DHT22;11525;51.152;4.456;2023-04-03T07:15:56;13.90;96.50
22716;DHT22;11525;51.152;4.456;2023-04-03T07:18:23;14.70;94.40
22716;DHT22;11525;51.152;4.456;2023-04-03T07:20:48;14.80;90.70
22716;DHT22;11525;51.152;4.456;2023-04-03T07:23:14;13.90;93.30
22716;DHT22;11525;51.152;4.456;2023-04-03T07:25:44;14.00;93.30
22716;DHT22;11525;51.152;4.456;2023-04-03T07:28:12;12.80;94.80
22716;DHT22;11525;51.152;4.456;2023-04-03T07:30:59;11.70;98.80
22716;DHT22;11525;51.152;4.456;2023-04-03T07:33:26;11.10;99.90
22716;DHT22;11525;51.152;4.456;2023-04-03T07:35:52;11.10;99.90
22716;DHT22;11525;51.152;4.456;2023-04-03T07:38:18;10.70;99.90
22716;DHT22;11525;51.152;4.456;2023-04-03T07:40:48;10.30;99.90
22716;DHT22;11525;51.152;4.456;2023-04-03T07:43:18;10.30;99.90
22716;DHT22;11525;51.152;4.456;2023-04-03T07:45:46;11.10;99.90
22716;DHT22;11525;51.152;4.456;2023-04-03T07:48:15;11.60;99.90
22716;DHT22;11525;51.152;4.456;2023-04-03T07:50:43;11.30;99.90
22716;DHT22;11525;51.152;4.456;2023-04-03T07:53:09;11.10;99.90
22716;DHT22;11525;51.152;4.456;2023-04-03T07:55:35;10.10;99.90
22716;DHT22;11525;51.152;4.456;2023-04-03T07:58:11;9.30;99.90
22716;DHT22;11525;51.152;4.456;2023-04-03T08:00:37;9.20;99.90
22716;DHT22;11525;51.152;4.456;2023-04-03T08:03:04;9.90;99.90
22716;DHT22;11525;51.152;4.456;2023-04-03T08:05:29;10.70;99.90
22716;DHT22;11525;51.152;4.456;2023-04-03T08:07:55;11.70;99.90
22716;DHT22;11525;51.152;4.456;2023-04-03T08:10:21;12.50;99.10
22716;DHT22;11525;51.152;4.456;2023-04-03T08:12:47;13.00;95.40
22716;DHT22;11525;51.152;4.456;2023-04-03T08:15:13;14.00;92.20
22716;DHT22;11525;51.152;4.456;2023-04-03T08:17:39;14.20;90.50
22716;DHT22;11525;51.152;4.456;2023-04-03T08:20:06;13.00;93.40
22716;DHT22;11525;51.152;4.456;2023-04-03T08:22:34;12.50;95.30
22716;DHT22;11525;51.152;4.456;2023-04-03T08:25:00;12.30;96.60
22716;DHT22;11525;51.152;4.456;2023-04-03T08:27:27;13.30;94.40
22716;DHT22;11525;51.152;4.456;2023-04-03T08:29:54;13.70;91.70
22716;DHT22;11525;51.152;4.456;2023-04-03T08:32:24;14.80;87.30
22716;DHT22;11525;51.152;4.456;2023-04-03T08:34:49;15.00;81.30
22716;DHT22;11525;51.152;4.456;2023-04-03T08:37:15;14.00;85.70
22716;DHT22;11525;51.152;4.456;2023-04-03T08:39:45;14.20;89.80
22716;DHT22;11525;51.152;4.456;2023-04-03T08:48:06;13.40;83.10
22716;DHT22;11525;51.152;4.456;2023-04-03T08:50:45;13.60;85.30
22716;DHT22;11525;51.152;4.456;2023-04-03T08:53:16;13.60;84.10
22716;DHT22;11525;51.152;4.456;2023-04-03T08:55:47;14.20;79.00
22716;DHT22;11525;51.152;4.456;2023-04-03T08:58:18;14.50;80.30
22716;DHT22;11525;51.152;4.456;2023-04-03T09:03:15;16.00;69.30
22716;DHT22;11525;51.152;4.456;2023-04-03T09:17:35;15.40;70.10
22716;DHT22;11525;51.152;4.456;2023-04-03T09:22:43;15.30;67.70
22716;DHT22;11525;51.152;4.456;2023-04-03T09:25:23;14.90;68.00
22716;DHT22;11525;51.152;4.456;2023-04-03T09:27:49;15.00;69.80
22716;DHT22;11525;51.152;4.456;2023-04-03T09:30:18;14.70;70.10
22716;DHT22;11525;51.152;4.456;2023-04-03T09:32:46;15.00;68.60
22716;DHT22;11525;51.152;4.456;2023-04-03T09:35:31;15.60;67.00
22716;DHT22;11525;51.152;4.456;2023-04-03T09:40:38;16.00;64.80
22716;DHT22;11525;51.152;4.456;2023-04-03T09:45:43;16.20;61.10
22716;DHT22;11525;51.152;4.456;2023-04-03T09:51:01;14.70;64.40
22716;DHT22;11525;51.152;4.456;2023-04-03T09:53:40;14.90;67.30
22716;DHT22;11525;51.152;4.456;2023-04-03T09:58:43;15.30;64.30
22716;DHT22;11525;51.152;4.456;2023-04-03T10:02:17;15.40;63.50
22716;DHT22;11525;51.152;4.456;2023-04-03T10:04:19;15.40;64.20
22716;DHT22;11525;51.152;4.456;2023-04-03T10:06:49;15.60;63.70
22716;DHT22;11525;51.152;4.456;2023-04-03T10:09:30;15.10;66.10
22716;DHT22;11525;51.152;4.456;2023-04-03T10:12:03;15.00;62.70
22716;DHT22;11525;51.152;4.456;2023-04-03T10:14:58;15.00;64.10
22716;DHT22;11525;51.152;4.456;2023-04-03T10:17:56;14.90;64.30
22716;DHT22;11525;51.152;4.456;2023-04-03T10:20:39;14.40;64.90
22716;DHT22;11525;51.152;4.456;2023-04-03T10:23:18;15.90;59.80
22716;DHT22;11525;51.152;4.456;2023-04-03T10:31:45;14.70;60.30
22716;DHT22;11525;51.152;4.456;2023-04-03T10:34:35;15.00;58.60
22716;DHT22;11525;51.152;4.456;2023-04-03T10:37:46;14.60;58.50
22716;DHT22;11525;51.152;4.456;2023-04-03T10:40:28;15.30;58.10
22716;DHT22;11525;51.152;4.456;2023-04-03T10:45:57;14.90;53.10
22716;DHT22;11525;51.152;4.456;2023-04-03T10:48:34;15.00;55.70
22716;DHT22;11525;51.152;4.456;2023-04-03T10:53:57;16.30;53.90
22716;DHT22;11525;51.152;4.456;2023-04-03T10:56:32;15.30;53.90
22716;DHT22;11525;51.152;4.456;2023-04-03T11:02:10;12.20;64.30
22716;DHT22;11525;51.152;4.456;2023-04-03T11:04:40;10.90;67.80
22716;DHT22;11525;51.152;4.456;2023-04-03T11:07:18;10.60;69.40
22716;DHT22;11525;51.152;4.456;2023-04-03T11:09:50;10.30;67.30
22716;DHT22;11525;51.152;4.456;2023-04-03T11:12:29;10.20;66.20
22716;DHT22;11525;51.152;4.456;2023-04-03T11:14:59;10.00;65.00
22716;DHT22;11525;51.152;4.456;2023-04-03T11:17:35;10.10;64.70
22716;DHT22;11525;51.152;4.456;2023-04-03T11:22:39;10.30;62.30
22716;DHT22;11525;51.152;4.456;2023-04-03T11:27:45;10.10;59.60
22716;DHT22;11525;51.152;4.456;2023-04-03T11:30:25;9.90;62.10
22716;DHT22;11525;51.152;4.456;2023-04-03T11:33:21;10.10;58.60
22716;DHT22;11525;51.152;4.456;2023-04-03T11:35:57;10.20;59.00
22716;DHT22;11525;51.152;4.456;2023-04-03T11:38:31;10.30;58.70
22716;DHT22;11525;51.152;4.456;2023-04-03T11:41:03;10.50;58.00
22716;DHT22;11525;51.152;4.456;2023-04-03T11:43:32;10.50;55.60
22716;DHT22;11525;51.152;4.456;2023-04-03T11:46:06;10.30;55.70
22716;DHT22;11525;51.152;4.456;2023-04-03T11:53:38;10.00;55.10
22716;DHT22;11525;51.152;4.456;2023-04-03T12:04:22;10.00;55.10
22716;DHT22;11525;51.152;4.456;2023-04-03T12:09:31;10.10;55.00
22716;DHT22;11525;51.152;4.456;2023-04-03T12:12:00;10.10;55.40
22716;DHT22;11525;51.152;4.456;2023-04-03T12:14:27;9.80;55.10
22716;DHT22;11525;51.152;4.456;2023-04-03T12:16:55;9.70;55.30
22716;DHT22;11525;51.152;4.456;2023-04-03T12:19:38;9.80;54.60
22716;DHT22;11525;51.152;4.456;2023-04-03T12:22:16;9.90;53.10
22716;DHT22;11525;51.152;4.456;2023-04-03T12:24:47;9.90;53.30
22716;DHT22;11525;51.152;4.456;2023-04-03T12:30:00;9.90;54.00
22716;DHT22;11525;51.152;4.456;2023-04-03T12:43:38;10.50;55.00
22716;DHT22;11525;51.152;4.456;2023-04-03T12:54:02;10.30;52.90
22716;DHT22;11525;51.152;4.456;2023-04-03T12:56:31;10.20;53.20
22716;DHT22;11525;51.152;4.456;2023-04-03T12:59:23;10.30;54.50
22716;DHT22;11525;51.152;4.456;2023-04-03T13:01:59;10.30;55.10
22716;DHT22;11525;51.152;4.456;2023-04-03T13:04:27;10.40;57.50
22716;DHT22;11525;51.152;4.456;2023-04-03T13:06:53;10.40;55.40
22716;DHT22;11525;51.152;4.456;2023-04-03T13:09:28;10.50;56.00
22716;DHT22;11525;51.152;4.456;2023-04-03T13:12:07;10.50;57.10
22716;DHT22;11525;51.152;4.456;2023-04-03T13:14:36;10.50;57.10
22716;DHT22;11525;51.152;4.456;2023-04-03T13:17:15;10.50;57.00
22716;DHT22;11525;51.152;4.456;2023-04-03T13:19:42;10.50;56.80
22716;DHT22;11525;51.152;4.456;2023-04-03T13:22:26;10.10;57.90
22716;DHT22;11525;51.152;4.456;2023-04-03T13:24:54;10.20;58.70
22716;DHT22;11525;51.152;4.456;2023-04-03T13:27:21;10.20;57.70
22716;DHT22;11525;51.152;4.456;2023-04-03T13:29:52;10.40;58.20
22716;DHT22;11525;51.152;4.456;2023-04-03T13:32:21;10.30;56.90
22716;DHT22;11525;51.152;4.456;2023-04-03T13:34:48;10.30;55.70
22716;DHT22;11525;51.152;4.456;2023-04-03T13:37:27;10.30;56.10
22716;DHT22;11525;51.152;4.456;2023-04-03T13:42:34;10.40;57.10
22716;DHT22;11525;51.152;4.456;2023-04-03T13:47:44;10.40;57.90
22716;DHT22;11525;51.152;4.456;2023-04-03T13:50:24;10.50;57.80
22716;DHT22;11525;51.152;4.456;2023-04-03T13:53:12;10.60;57.60
22716;DHT22;11525;51.152;4.456;2023-04-03T13:56:04;10.30;55.60
22716;DHT22;11525;51.152;4.456;2023-04-03T13:58:33;10.20;54.90
22716;DHT22;11525;51.152;4.456;2023-04-03T14:03:44;9.90;55.90
22716;DHT22;11525;51.152;4.456;2023-04-03T14:06:13;10.20;55.00
22716;DHT22;11525;51.152;4.456;2023-04-03T14:08:40;10.10;56.00
22716;DHT22;11525;51.152;4.456;2023-04-03T14:11:19;10.30;57.30
22716;DHT22;11525;51.152;4.456;2023-04-03T14:13:47;10.40;56.10
22716;DHT22;11525;51.152;4.456;2023-04-03T14:16:15;10.40;54.30
22716;DHT22;11525;51.152;4.456;2023-04-03T14:18:43;10.20;54.50
22716;DHT22;11525;51.152;4.456;2023-04-03T14:21:11;10.10;55.70
22716;DHT22;11525;51.152;4.456;2023-04-03T14:23:38;10.20;56.70
22716;DHT22;11525;51.152;4.456;2023-04-03T14:26:09;10.30;55.50
22716;DHT22;11525;51.152;4.456;2023-04-03T14:28:35;10.30;55.40
22716;DHT22;11525;51.152;4.456;2023-04-03T14:31:01;10.30;56.90
22716;DHT22;11525;51.152;4.456;2023-04-03T14:33:27;10.50;56.20
22716;DHT22;11525;51.152;4.456;2023-04-03T14:35:56;10.60;55.50
22716;DHT22;11525;51.152;4.456;2023-04-03T14:38:26;10.50;55.80
22716;DHT22;11525;51.152;4.456;2023-04-03T14:40:54;10.60;56.00
22716;DHT22;11525;51.152;4.456;2023-04-03T14:43:20;10.60;54.10
22716;DHT22;11525;51.152;4.456;2023-04-03T14:45:50;10.50;54.00
22716;DHT22;11525;51.152;4.456;2023-04-03T14:48:22;10.80;53.20
22716;DHT22;11525;51.152;4.456;2023-04-03T14:50:49;10.50;54.60
22716;DHT22;11525;51.152;4.456;2023-04-03T14:53:16;10.50;54.20
22716;DHT22;11525;51.152;4.456;2023-04-03T14:55:44;10.40;55.30
22716;DHT22;11525;51.152;4.456;2023-04-03T14:58:16;10.40;54.40
22716;DHT22;11525;51.152;4.456;2023-04-03T15:00:43;10.50;54.60
22716;DHT22;11525;51.152;4.456;2023-04-03T15:03:13;10.60;54.60
22716;DHT22;11525;51.152;4.456;2023-04-03T15:05:40;10.50;54.90
22716;DHT22;11525;51.152;4.456;2023-04-03T15:08:17;10.40;54.00
22716;DHT22;11525;51.152;4.456;2023-04-03T15:10:44;10.50;55.20
22716;DHT22;11525;51.152;4.456;2023-04-03T15:13:11;10.60;53.40
22716;DHT22;11525;51.152;4.456;2023-04-03T15:15:37;10.70;53.10
22716;DHT22;11525;51.152;4.456;2023-04-03T15:18:03;10.60;53.20
22716;DHT22;11525;51.152;4.456;2023-04-03T15:20:30;10.50;54.00
22716;DHT22;11525;51.152;4.456;2023-04-03T15:22:59;10.60;53.30
22716;DHT22;11525;51.152;4.456;2023-04-03T15:25:28;10.70;53.10
22716;DHT22;11525;51.152;4.456;2023-04-03T15:27:55;10.30;53.10
22716;DHT22;11525;51.152;4.456;2023-04-03T15:30:21;10.30;53.90
22716;DHT22;11525;51.152;4.456;2023-04-03T15:32:48;10.50;54.10
22716;DHT22;11525;51.152;4.456;2023-04-03T15:35:15;10.60;53.40
22716;DHT22;11525;51.152;4.456;2023-04-03T15:37:41;10.60;54.50
22716;DHT22;11525;51.152;4.456;2023-04-03T15:40:07;10.70;54.30
22716;DHT22;11525;51.152;4.456;2023-04-03T15:42:33;10.70;53.80
22716;DHT22;11525;51.152;4.456;2023-04-03T15:44:59;10.90;53.70
22716;DHT22;11525;51.152;4.456;2023-04-03T15:47:26;10.60;53.40
22716;DHT22;11525;51.152;4.456;2023-04-03T15:49:53;10.60;54.80
22716;DHT22;11525;51.152;4.456;2023-04-03T15:52:20;10.60;54.90
22716;DHT22;11525;51.152;4.456;2023-04-03T15:54:45;10.60;56.20
22716;DHT22;11525;51.152;4.456;2023-04-03T15:57:11;10.70;56.10
22716;DHT22;11525;51.152;4.456;2023-04-03T15:59:37;10.60;56.50
22716;DHT22;11525;51.152;4.456;2023-04-03T16:02:05;10.60;56.40
22716;DHT22;11525;51.152;4.456;2023-04-03T16:04:32;10.50;55.20
22716;DHT22;11525;51.152;4.456;2023-04-03T16:07:02;10.50;54.90
22716;DHT22;11525;51.152;4.456;2023-04-03T16:09:28;10.50;54.60
22716;DHT22;11525;51.152;4.456;2023-04-03T16:11:54;10.60;56.20
22716;DHT22;11525;51.152;4.456;2023-04-03T16:14:20;10.60;56.60
22716;DHT22;11525;51.152;4.456;2023-04-03T16:16:45;10.80;56.60
22716;DHT22;11525;51.152;4.456;2023-04-03T16:19:11;10.70;57.00
22716;DHT22;11525;51.152;4.456;2023-04-03T16:21:38;10.40;56.00
22716;DHT22;11525;51.152;4.456;2023-04-03T16:24:04;10.50;56.30
22716;DHT22;11525;51.152;4.456;2023-04-03T16:26:31;10.40;56.90
22716;DHT22;11525;51.152;4.456;2023-04-03T16:28:56;10.40;57.90
22716;DHT22;11525;51.152;4.456;2023-04-03T16:31:24;10.40;58.50
22716;DHT22;11525;51.152;4.456;2023-04-03T16:33:50;10.40;58.40
22716;DHT22;11525;51.152;4.456;2023-04-03T16:36:16;10.30;57.80
22716;DHT22;11525;51.152;4.456;2023-04-03T16:38:42;10.40;58.10
22716;DHT22;11525;51.152;4.456;2023-04-03T16:41:08;10.20;59.30
22716;DHT22;11525;51.152;4.456;2023-04-03T16:43:34;10.10;60.00
22716;DHT22;11525;51.152;4.456;2023-04-03T16:46:01;10.10;60.70
22716;DHT22;11525;51.152;4.456;2023-04-03T16:48:28;10.00;61.20
22716;DHT22;11525;51.152;4.456;2023-04-03T16:50:54;10.00;61.00
22716;DHT22;11525;51.152;4.456;2023-04-03T16:53:21;10.10;62.10
22716;DHT22;11525;51.152;4.456;2023-04-03T16:55:47;10.10;62.50
22716;DHT22;11525;51.152;4.456;2023-04-03T16:58:13;10.10;63.00
22716;DHT22;11525;51.152;4.456;2023-04-03T17:00:40;10.00;62.90
22716;DHT22;11525;51.152;4.456;2023-04-03T17:03:06;9.90;64.40
22716;DHT22;11525;51.152;4.456;2023-04-03T17:05:32;10.00;63.70
22716;DHT22;11525;51.152;4.456;2023-04-03T17:07:58;10.10;64.10
22716;DHT22;11525;51.152;4.456;2023-04-03T17:10:24;9.90;64.30
22716;DHT22;11525;51.152;4.456;2023-04-03T17:12:50;9.70;66.10
22716;DHT22;11525;51.152;4.456;2023-04-03T17:15:16;9.80;66.00
22716;DHT22;11525;51.152;4.456;2023-04-03T17:17:42;9.70;65.80
22716;DHT22;11525;51.152;4.456;2023-04-03T17:20:09;9.60;66.40
22716;DHT22;11525;51.152;4.456;2023-04-03T17:22:35;9.50;66.00
22716;DHT22;11525;51.152;4.456;2023-04-03T17:25:02;9.40;67.40
22716;DHT22;11525;51.152;4.456;2023-04-03T17:27:28;9.40;68.00
22716;DHT22;11525;51.152;4.456;2023-04-03T17:29:54;9.30;69.90
22716;DHT22;11525;51.152;4.456;2023-04-03T17:32:20;9.40;69.60
22716;DHT22;11525;51.152;4.456;2023-04-03T17:34:46;9.30;70.80
22716;DHT22;11525;51.152;4.456;2023-04-03T17:37:12;9.30;70.40
22716;DHT22;11525;51.152;4.456;2023-04-03T17:39:38;9.40;70.40